Time;durP1;ratioP1;P1;durP2;ratioP2;P2;SDS_P1;SDS_P2;PMS_P1;PMS_P2;Temp;Humidity;BMP_temperature;BMP_pressure;BME280_temperature;BME280_humidity;BME280_pressure;Samples;Min_cycle;Max_cycle;Signal;HPM_P1;HPM_P2
2022/10/14 00:00:42;;;;;;;46.85;29.20;;;;;;;9.74;90.77;100684.45;1644714;87;21024;-74
2022/10/14 00:03:09;;;;;;;41.42;29.07;;;;;;;9.72;90.87;100684.39;1634036;86;21034;-74
2022/10/14 00:05:40;;;;;;;38.45;27.95;;;;;;;9.73;91.03;100674.78;1631208;86;21164;-75
2022/10/14 00:08:08;;;;;;;44.40;26.97;;;;;;;9.74;91.18;100680.42;1619342;87;21533;-72
2022/10/14 00:10:40;;;;;;;49.10;29.15;;;;;;;9.76;91.23;100677.53;1619800;86;21078;-74
2022/10/14 00:13:06;;;;;;;49.55;29.32;;;;;;;9.77;91.31;100674.63;1629961;87;21567;-75
2022/10/14 00:15:39;;;;;;;52.67;27.27;;;;;;;9.80;91.45;100677.38;1635810;86;21106;-73
2022/10/14 00:18:09;;;;;;;56.45;32.13;;;;;;;9.84;91.51;100671.86;1638629;86;20983;-72
2022/10/14 00:20:36;;;;;;;44.77;27.70;;;;;;;9.92;91.44;100680.49;1630153;88;21055;-74
2022/10/14 00:23:03;;;;;;;42.95;26.23;;;;;;;9.99;91.29;100677.20;1660763;86;21090;-75
2022/10/14 00:25:30;;;;;;;38.20;24.98;;;;;;;10.03;90.98;100674.36;1630313;88;21023;-73
2022/10/14 00:27:57;;;;;;;43.50;27.95;;;;;;;10.01;90.77;100671.61;1605990;86;21058;-74
2022/10/14 00:30:23;;;;;;;45.30;26.90;;;;;;;9.98;90.66;100668.83;1651263;86;21108;-77
2022/10/14 00:32:49;;;;;;;46.50;25.45;;;;;;;9.97;90.64;100671.25;1662330;85;21093;-75
2022/10/14 00:35:16;;;;;;;38.78;26.33;;;;;;;9.93;90.40;100674.05;1663817;85;21130;-74
2022/10/14 00:37:45;;;;;;;42.95;25.40;;;;;;;9.85;90.34;100666.28;1623045;87;21081;-73
2022/10/14 00:40:11;;;;;;;36.50;23.67;;;;;;;9.85;90.53;100662.77;1647619;85;21130;-72
2022/10/14 00:42:39;;;;;;;36.65;22.93;;;;;;;9.86;90.50;100668.45;1647317;87;21254;-73
2022/10/14 00:45:13;;;;;;;43.60;26.40;;;;;;;9.83;90.46;100667.02;1649307;85;21541;-75
2022/10/14 00:47:40;;;;;;;39.05;24.25;;;;;;;9.83;90.54;100668.91;1658309;85;21104;-75
2022/10/14 00:50:09;;;;;;;36.95;25.90;;;;;;;9.84;90.59;100663.80;1674975;84;21095;-77
2022/10/14 00:52:37;;;;;;;39.60;22.58;;;;;;;9.87;90.75;100664.21;1662707;85;21533;-73
2022/10/14 00:55:07;;;;;;;36.77;21.40;;;;;;;9.90;90.79;100665.09;1660080;85;21259;-71
2022/10/14 00:57:34;;;;;;;37.45;23.00;;;;;;;9.97;90.79;100670.42;1626062;87;21084;-77
2022/10/14 01:00:09;;;;;;;39.05;21.75;;;;;;;9.97;90.53;100659.15;1633321;87;21157;-75
2022/10/14 01:02:35;;;;;;;33.42;22.48;;;;;;;9.99;90.49;100659.73;1667008;85;21102;-72
2022/10/14 01:05:03;;;;;;;31.30;22.95;;;;;;;10.00;90.42;100655.19;1650006;85;21100;-74
2022/10/14 01:07:39;;;;;;;37.75;22.80;;;;;;;10.07;90.60;100651.92;1644462;87;21093;-74
2022/10/14 01:10:34;;;;;;;36.03;23.73;;;;;;;10.09;90.16;100651.16;1616975;87;21139;-76
2022/10/14 01:13:33;;;;;;;37.25;21.15;;;;;;;10.08;90.00;100651.67;1615988;88;21571;-74
2022/10/14 01:16:34;;;;;;;34.13;21.65;;;;;;;10.13;89.88;100648.84;1637767;87;21068;-73
2022/10/14 01:19:15;;;;;;;37.20;23.30;;;;;;;10.12;89.77;100652.05;1636824;87;21159;-74
2022/10/14 01:21:55;;;;;;;32.03;20.17;;;;;;;10.10;89.77;100653.33;1648007;87;22250;-74
2022/10/14 01:24:41;;;;;;;43.45;23.73;;;;;;;10.12;89.81;100648.02;1648141;87;22117;-74
2022/10/14 01:27:25;;;;;;;34.65;20.88;;;;;;;10.12;89.70;100649.36;1647280;87;21133;-72
2022/10/14 01:30:09;;;;;;;33.25;20.37;;;;;;;10.14;89.55;100647.80;1643902;87;21093;-75
2022/10/14 01:33:05;;;;;;;29.87;20.40;;;;;;;10.07;89.34;100645.20;1647542;87;20964;-74
2022/10/14 01:35:40;;;;;;;29.75;20.30;;;;;;;10.05;89.49;100641.38;1572329;89;21152;-73
2022/10/14 01:38:31;;;;;;;40.05;22.42;;;;;;;10.06;89.51;100643.03;1598727;87;21500;-75
2022/10/14 01:41:05;;;;;;;32.33;20.30;;;;;;;10.04;89.53;100640.25;1652153;86;21071;-74
2022/10/14 01:43:32;;;;;;;38.53;21.75;;;;;;;10.00;89.75;100639.88;1658286;86;21028;-72
2022/10/14 01:46:00;;;;;;;34.08;21.75;;;;;;;10.01;89.89;100644.22;1653385;86;21059;-73
2022/10/14 01:48:31;;;;;;;32.98;22.17;;;;;;;10.02;89.99;100637.77;1648137;86;21893;-73
2022/10/14 01:51:00;;;;;;;49.03;23.70;;;;;;;10.04;90.05;100638.91;1620119;87;21662;-73
2022/10/14 01:53:37;;;;;;;27.90;20.85;;;;;;;10.03;90.10;100638.08;1638976;87;21048;-72
2022/10/14 01:56:03;;;;;;;34.90;23.47;;;;;;;10.01;90.07;100633.98;1643379;86;21064;-76
2022/10/14 01:58:32;;;;;;;29.00;21.00;;;;;;;9.97;90.15;100639.00;1655725;86;21050;-74
2022/10/14 02:01:05;;;;;;;36.68;21.93;;;;;;;9.98;90.26;100639.79;1637009;87;21597;-75
2022/10/14 02:03:41;;;;;;;41.40;23.42;;;;;;;9.97;90.35;100636.31;1665980;85;20995;-74
2022/10/14 02:06:32;;;;;;;32.25;21.85;;;;;;;10.00;90.63;100638.54;1641138;85;21067;-74
2022/10/14 02:09:28;;;;;;;35.13;22.30;;;;;;;10.06;90.55;100634.97;1639025;87;21091;-74
2022/10/14 02:12:42;;;;;;;33.92;22.87;;;;;;;10.16;90.66;100637.17;1639062;87;21010;-74
2022/10/14 02:15:43;;;;;;;33.75;20.32;;;;;;;10.24;90.20;100635.52;1647227;86;21763;-73
2022/10/14 02:18:50;;;;;;;36.38;22.40;;;;;;;10.26;89.67;100640.68;1652150;86;21027;-74
2022/10/14 02:21:43;;;;;;;32.23;22.15;;;;;;;10.12;89.15;100641.84;1664488;85;21099;-74
2022/10/14 02:24:21;;;;;;;44.60;26.20;;;;;;;9.98;89.35;100641.95;1631457;87;22145;-75
2022/10/14 02:26:48;;;;;;;37.70;22.05;;;;;;;9.92;89.64;100635.33;1665967;85;21048;-74
2022/10/14 02:29:17;;;;;;;32.15;22.87;;;;;;;9.84;89.96;100639.11;1644200;86;21872;-74
2022/10/14 02:31:44;;;;;;;33.50;23.40;;;;;;;9.85;90.34;100632.70;1612660;88;20991;-74
2022/10/14 02:34:13;;;;;;;42.40;25.60;;;;;;;9.89;90.51;100634.41;1612626;89;21126;-74
2022/10/14 02:36:40;;;;;;;32.42;23.18;;;;;;;9.88;90.47;100633.58;1612996;89;21074;-74
2022/10/14 02:39:07;;;;;;;32.58;24.25;;;;;;;9.84;90.57;100636.42;1619514;87;21071;-73
2022/10/14 02:41:34;;;;;;;41.65;24.67;;;;;;;9.80;90.68;100633.87;1653259;85;21639;-75
2022/10/14 02:44:01;;;;;;;46.05;26.77;;;;;;;9.79;90.78;100632.75;1660274;85;20963;-74
2022/10/14 02:46:28;;;;;;;41.60;28.00;;;;;;;9.80;91.00;100636.56;1647913;85;21028;-74
2022/10/14 02:48:56;;;;;;;58.95;31.25;;;;;;;9.85;91.09;100631.34;1658440;85;21541;-73
2022/10/14 02:51:23;;;;;;;54.88;34.18;;;;;;;9.85;91.00;100631.88;1647839;86;21062;-73
2022/10/14 02:53:52;;;;;;;66.47;38.28;;;;;;;9.75;91.07;100635.06;1647911;87;22659;-73
2022/10/14 02:56:18;;;;;;;62.05;36.45;;;;;;;9.63;91.34;100636.84;1661239;85;21035;-72
2022/10/14 02:58:45;;;;;;;60.98;35.70;;;;;;;9.55;91.62;100637.09;1674000;85;21134;-72
2022/10/14 03:01:12;;;;;;;47.90;33.35;;;;;;;9.49;91.89;100638.00;1675369;85;21052;-72
2022/10/14 03:03:39;;;;;;;48.10;32.88;;;;;;;9.54;92.28;100640.30;1667231;85;21096;-73
2022/10/14 03:06:08;;;;;;;54.85;36.38;;;;;;;9.54;92.20;100632.80;1655668;86;21060;-71
2022/10/14 03:08:35;;;;;;;53.10;36.53;;;;;;;9.42;92.18;100641.25;1647856;86;21072;-74
2022/10/14 03:11:02;;;;;;;51.25;35.38;;;;;;;9.30;92.41;100640.33;1652659;85;21030;-74
2022/10/14 03:13:31;;;;;;;52.35;35.15;;;;;;;9.18;92.73;100637.50;1636507;85;21076;-72
2022/10/14 03:15:59;;;;;;;57.23;35.50;;;;;;;9.06;93.42;100649.47;1675664;85;21027;-74
2022/10/14 03:18:26;;;;;;;66.87;35.80;;;;;;;9.01;93.65;100643.93;1675372;85;21248;-73
2022/10/14 03:20:56;;;;;;;60.35;35.58;;;;;;;8.95;94.04;100638.08;1675295;85;20999;-73
2022/10/14 03:23:26;;;;;;;49.08;30.55;;;;;;;8.96;94.33;100638.91;1663850;85;21110;-72
2022/10/14 03:25:53;;;;;;;43.55;28.38;;;;;;;8.99;94.61;100640.63;1647995;87;21571;-73
2022/10/14 03:28:21;;;;;;;46.68;28.67;;;;;;;9.01;94.57;100636.40;1620985;87;21406;-73
2022/10/14 03:30:49;;;;;;;42.73;27.35;;;;;;;8.98;94.64;100640.32;1647471;85;21934;-73
2022/10/14 03:33:18;;;;;;;39.70;28.70;;;;;;;8.97;94.73;100635.98;1646567;85;21060;-72
2022/10/14 03:35:55;;;;;;;50.40;31.02;;;;;;;8.91;94.94;100634.19;1618387;88;20965;-73
2022/10/14 03:38:24;;;;;;;46.48;31.10;;;;;;;8.88;95.31;100636.45;1637082;87;21549;-73
2022/10/14 03:40:52;;;;;;;45.35;29.12;;;;;;;8.81;95.49;100629.80;1622925;88;20974;-72
2022/10/14 03:43:18;;;;;;;46.58;30.00;;;;;;;8.77;95.62;100631.28;1628243;86;21259;-74
2022/10/14 03:45:53;;;;;;;44.80;28.83;;;;;;;8.83;95.86;100633.08;1638080;86;21524;-72
2022/10/14 03:48:21;;;;;;;45.63;31.05;;;;;;;8.84;95.73;100633.39;1619206;88;20985;-74
2022/10/14 03:50:48;;;;;;;52.60;26.02;;;;;;;8.80;95.68;100636.20;1645730;87;21573;-75
2022/10/14 03:53:17;;;;;;;40.55;23.87;;;;;;;8.85;95.95;100632.88;1633575;86;21059;-74
2022/10/14 03:55:43;;;;;;;40.12;24.02;;;;;;;8.89;95.86;100635.42;1603366;89;21148;-73
2022/10/14 03:58:12;;;;;;;41.23;25.52;;;;;;;8.91;95.60;100643.58;1616751;87;21577;-73
2022/10/14 04:00:43;;;;;;;39.20;23.62;;;;;;;8.87;95.44;100635.66;1611021;89;20956;-74
2022/10/14 04:03:28;;;;;;;39.80;29.00;;;;;;;8.85;95.51;100639.06;1616043;87;21045;-73
2022/10/14 04:05:55;;;;;;;43.02;26.20;;;;;;;8.82;95.39;100643.53;1619533;88;21131;-74
2022/10/14 04:08:25;;;;;;;39.83;23.07;;;;;;;8.72;95.44;100641.83;1622349;87;21327;-74
2022/10/14 04:11:00;;;;;;;35.50;25.50;;;;;;;8.74;95.68;100637.88;1646062;85;20966;-76
2022/10/14 04:13:29;;;;;;;39.13;23.73;;;;;;;8.75;95.70;100639.53;1628436;86;21610;-75
2022/10/14 04:16:03;;;;;;;37.33;24.30;;;;;;;8.77;95.61;100637.16;1566318;91;21104;-73
2022/10/14 04:18:34;;;;;;;40.08;23.67;;;;;;;8.78;95.58;100635.58;1589876;89;21015;-75
2022/10/14 04:21:07;;;;;;;32.73;22.58;;;;;;;8.80;95.65;100642.91;1576921;90;21087;-75
2022/10/14 04:23:34;;;;;;;33.98;20.90;;;;;;;8.86;95.72;100639.38;1590529;88;21060;-72
2022/10/14 04:26:04;;;;;;;29.67;20.10;;;;;;;8.90;95.42;100638.42;1610870;88;21091;-73
2022/10/14 04:28:31;;;;;;;35.73;22.40;;;;;;;8.85;95.12;100639.06;1612605;88;21623;-74
2022/10/14 04:31:00;;;;;;;32.08;21.25;;;;;;;8.82;95.07;100638.68;1589589;89;21115;-74
2022/10/14 04:33:28;;;;;;;26.17;18.10;;;;;;;8.83;95.26;100637.10;1566267;91;21199;-73
2022/10/14 04:36:01;;;;;;;30.97;20.88;;;;;;;8.85;95.21;100637.72;1566360;91;21066;-74
2022/10/14 04:38:30;;;;;;;32.60;20.20;;;;;;;8.85;95.06;100639.06;1575392;89;21141;-73
2022/10/14 04:40:59;;;;;;;29.10;19.77;;;;;;;8.91;95.11;100638.73;1609176;86;21040;-75
2022/10/14 04:43:26;;;;;;;23.55;16.40;;;;;;;8.92;94.84;100636.35;1640069;86;21072;-74
2022/10/14 04:45:53;;;;;;;26.57;17.55;;;;;;;8.95;94.71;100645.30;1628354;86;21375;-76
2022/10/14 04:48:22;;;;;;;24.50;15.80;;;;;;;8.95;94.69;100647.47;1629766;86;21596;-76
2022/10/14 04:50:51;;;;;;;31.55;17.77;;;;;;;9.01;94.47;100645.27;1629379;88;21003;-75
2022/10/14 04:53:20;;;;;;;30.77;18.73;;;;;;;8.99;94.14;100641.14;1548167;88;21480;-74
2022/10/14 04:55:50;;;;;;;27.87;17.02;;;;;;;9.00;94.33;100640.11;1628432;88;21063;-74
2022/10/14 04:58:17;;;;;;;34.40;19.32;;;;;;;9.04;94.16;100648.86;1629464;88;21150;-73
2022/10/14 05:00:45;;;;;;;25.05;17.40;;;;;;;9.07;93.98;100640.36;1608634;87;21154;-71
2022/10/14 05:03:31;;;;;;;22.95;17.30;;;;;;;9.06;93.63;100636.57;1629234;88;21087;-72
2022/10/14 05:05:58;;;;;;;28.17;16.27;;;;;;;8.99;93.46;100641.97;1622619;86;21516;-73
2022/10/14 05:08:25;;;;;;;36.25;19.30;;;;;;;8.96;93.67;100645.09;1636724;86;21098;-73
2022/10/14 05:10:55;;;;;;;42.25;20.68;;;;;;;9.02;93.84;100644.21;1629216;88;22121;-72
2022/10/14 05:13:24;;;;;;;32.48;17.98;;;;;;;9.06;93.67;100647.30;1619247;87;22214;-73
2022/10/14 05:15:53;;;;;;;23.67;17.27;;;;;;;9.06;93.51;100652.16;1628587;86;20998;-74
2022/10/14 05:18:21;;;;;;;24.65;14.73;;;;;;;9.06;93.38;100652.67;1629458;88;21614;-71
2022/10/14 05:20:49;;;;;;;26.82;18.85;;;;;;;9.04;93.31;100650.71;1644779;86;21110;-71
2022/10/14 05:23:18;;;;;;;39.35;19.60;;;;;;;9.04;93.25;100658.25;1651237;86;21171;-74
2022/10/14 05:25:47;;;;;;;38.15;21.55;;;;;;;9.06;93.04;100666.91;1629440;88;21075;-74
2022/10/14 05:28:14;;;;;;;34.65;22.95;;;;;;;9.01;92.77;100666.73;1633398;86;21043;-73
2022/10/14 05:30:41;;;;;;;33.70;21.35;;;;;;;9.06;92.92;100662.89;1635097;87;21620;-73
2022/10/14 05:33:10;;;;;;;25.90;16.15;;;;;;;9.13;92.68;100662.83;1593800;90;21655;-72
2022/10/14 05:35:37;;;;;;;25.72;17.27;;;;;;;9.15;92.19;100663.45;1593668;90;21092;-73
2022/10/14 05:38:05;;;;;;;22.82;15.68;;;;;;;9.14;91.93;100670.67;1620888;88;21098;-73
2022/10/14 05:40:33;;;;;;;35.73;17.25;;;;;;;9.16;91.81;100675.80;1621498;87;21544;-73
2022/10/14 05:43:00;;;;;;;26.87;15.72;;;;;;;9.16;91.64;100676.63;1630676;86;21665;-73
2022/10/14 05:45:28;;;;;;;23.77;13.80;;;;;;;9.15;91.54;100668.81;1603639;89;21107;-72
2022/10/14 05:47:55;;;;;;;22.42;13.65;;;;;;;9.14;91.28;100672.53;1631004;88;21265;-71
2022/10/14 05:50:23;;;;;;;23.62;13.55;;;;;;;9.14;91.29;100677.90;1603368;89;21102;-72
2022/10/14 05:52:51;;;;;;;28.62;16.70;;;;;;;9.18;91.22;100679.11;1629009;87;21121;-74
2022/10/14 05:55:19;;;;;;;28.98;16.37;;;;;;;9.21;91.18;100677.87;1630712;88;21046;-74
2022/10/14 05:57:47;;;;;;;24.12;14.30;;;;;;;9.27;91.02;100683.17;1603499;88;21068;-74
2022/10/14 06:00:18;;;;;;;21.10;13.05;;;;;;;9.30;90.87;100681.94;1629957;87;21043;-74
2022/10/14 06:02:46;;;;;;;20.75;14.28;;;;;;;9.34;90.67;100677.77;1633207;86;21079;-74
2022/10/14 06:05:14;;;;;;;24.45;13.10;;;;;;;9.37;90.34;100685.38;1657393;86;21840;-75
2022/10/14 06:07:41;;;;;;;17.42;12.47;;;;;;;9.43;90.25;100687.20;1645695;87;21138;-73
2022/10/14 06:10:10;;;;;;;18.40;13.22;;;;;;;9.41;89.62;100683.90;1657311;86;21063;-73
2022/10/14 06:12:37;;;;;;;21.85;12.88;;;;;;;9.42;89.51;100690.92;1623237;87;21208;-73
2022/10/14 06:15:06;;;;;;;21.05;11.33;;;;;;;9.40;89.45;100685.76;1613619;88;21126;-76
2022/10/14 06:17:33;;;;;;;23.10;12.23;;;;;;;9.41;89.32;100684.73;1645440;87;21520;-71
2022/10/14 06:20:01;;;;;;;18.37;11.97;;;;;;;9.47;89.22;100687.89;1581979;89;21114;-74
2022/10/14 06:22:29;;;;;;;18.98;11.63;;;;;;;9.55;88.86;100684.92;1630944;86;21129;-72
2022/10/14 06:24:56;;;;;;;16.50;11.43;;;;;;;9.59;87.76;100685.33;1630516;87;21223;-73
2022/10/14 06:27:24;;;;;;;18.10;11.20;;;;;;;9.60;87.65;100686.44;1602708;89;21081;-75
2022/10/14 06:29:50;;;;;;;15.80;9.28;;;;;;;9.62;87.31;100692.94;1617732;87;21086;-73
2022/10/14 06:32:17;;;;;;;11.78;9.45;;;;;;;9.66;86.79;100695.48;1646678;87;21146;-82
2022/10/14 06:34:44;;;;;;;17.32;10.15;;;;;;;9.66;86.18;100697.34;1646408;87;21069;-76
2022/10/14 06:37:11;;;;;;;20.80;11.25;;;;;;;9.69;85.92;100692.90;1635856;87;21591;-72
2022/10/14 06:39:37;;;;;;;15.98;9.88;;;;;;;9.70;85.47;100695.86;1616486;87;21575;-74
2022/10/14 06:42:04;;;;;;;13.75;10.08;;;;;;;9.76;85.61;100693.65;1638243;87;21083;-73
2022/10/14 06:44:31;;;;;;;13.98;10.72;;;;;;;9.84;85.08;100693.36;1648774;86;21124;-74
2022/10/14 06:46:58;;;;;;;13.38;8.80;;;;;;;9.86;84.35;100697.48;1671863;85;21103;-73
2022/10/14 06:49:25;;;;;;;17.05;9.50;;;;;;;9.86;85.30;100689.42;1671809;85;21148;-74
2022/10/14 06:51:52;;;;;;;15.35;7.97;;;;;;;9.90;84.98;100693.83;1641016;86;21058;-74
2022/10/14 06:54:19;;;;;;;17.85;9.58;;;;;;;9.92;84.89;100693.10;1670377;85;21014;-74
2022/10/14 06:56:46;;;;;;;15.83;8.93;;;;;;;10.00;84.50;100696.33;1627194;87;21122;-73
2022/10/14 06:59:12;;;;;;;19.30;9.10;;;;;;;10.10;84.03;100694.47;1629879;86;21087;-74
2022/10/14 07:01:39;;;;;;;14.05;9.23;;;;;;;10.20;83.15;100700.72;1651976;86;21148;-71
2022/10/14 07:04:05;;;;;;;23.50;9.30;;;;;;;10.24;82.49;100698.70;1653519;86;21039;-73
2022/10/14 07:06:36;;;;;;;12.07;7.20;;;;;;;10.28;81.57;100694.52;1653138;86;21589;-73
2022/10/14 07:09:03;;;;;;;12.30;8.58;;;;;;;10.29;81.31;100697.51;1652320;86;21119;-71
2022/10/14 07:11:30;;;;;;;12.18;7.95;;;;;;;10.29;80.73;100696.69;1633418;86;21368;-73
2022/10/14 07:13:58;;;;;;;13.30;8.03;;;;;;;10.24;80.24;100693.32;1626289;88;21000;-73
2022/10/14 07:16:27;;;;;;;13.55;7.60;;;;;;;10.21;80.26;100701.84;1629978;86;21075;-72
2022/10/14 07:18:55;;;;;;;13.45;8.03;;;;;;;10.25;80.09;100698.18;1653034;86;20992;-73
2022/10/14 07:21:23;;;;;;;10.35;6.75;;;;;;;10.29;79.86;100692.13;1631808;86;21094;-73
2022/10/14 07:23:50;;;;;;;9.38;7.37;;;;;;;10.34;79.61;100694.15;1652479;86;21108;-71
2022/10/14 07:26:17;;;;;;;12.03;7.97;;;;;;;10.38;79.29;100688.09;1653132;86;21129;-73
2022/10/14 07:28:44;;;;;;;23.25;13.22;;;;;;;10.46;78.92;100689.13;1653281;86;21047;-74
2022/10/14 07:31:12;;;;;;;29.02;16.10;;;;;;;10.47;78.19;100683.23;1663494;85;21134;-76
2022/10/14 07:33:39;;;;;;;18.20;12.13;;;;;;;10.47;78.12;100685.41;1620463;86;21652;-72
2022/10/14 07:36:10;;;;;;;20.27;11.10;;;;;;;10.49;77.89;100678.47;1654086;85;21580;-72
2022/10/14 07:38:37;;;;;;;12.07;8.78;;;;;;;10.55;77.85;100677.55;1616735;87;21137;-73
2022/10/14 07:41:08;;;;;;;16.05;10.18;;;;;;;10.62;77.54;100682.86;1623990;87;21621;-72
2022/10/14 07:43:35;;;;;;;11.53;7.50;;;;;;;10.69;77.29;100686.30;1631764;87;21064;-75
2022/10/14 07:46:04;;;;;;;9.03;6.90;;;;;;;10.74;76.63;100689.92;1618094;88;21066;-73
2022/10/14 07:48:32;;;;;;;14.33;7.15;;;;;;;10.79;76.08;100689.28;1633490;86;21033;-74
2022/10/14 07:50:58;;;;;;;7.40;6.15;;;;;;;10.77;75.74;100694.87;1592253;88;21165;-73
2022/10/14 07:53:26;;;;;;;13.70;7.90;;;;;;;10.81;75.43;100696.58;1623727;87;21133;-73
2022/10/14 07:55:54;;;;;;;13.15;7.25;;;;;;;10.81;75.36;100693.89;1642521;87;21087;-73
2022/10/14 07:58:22;;;;;;;8.55;6.15;;;;;;;10.83;74.84;100693.16;1639355;85;22548;-73
2022/10/14 08:00:49;;;;;;;11.53;5.30;;;;;;;10.86;73.99;100698.89;1617890;88;21535;-75
2022/10/14 08:03:17;;;;;;;6.37;5.45;;;;;;;10.88;73.74;100702.20;1656732;85;22557;-79
2022/10/14 08:05:46;;;;;;;8.83;4.97;;;;;;;10.92;73.69;100700.69;1596034;89;21602;-75
2022/10/14 08:08:13;;;;;;;11.83;5.65;;;;;;;11.00;73.33;100700.88;1621583;87;21043;-77
2022/10/14 08:10:40;;;;;;;12.23;5.95;;;;;;;11.09;73.01;100698.69;1588784;88;21174;-73
2022/10/14 08:13:07;;;;;;;9.90;5.80;;;;;;;11.21;72.98;100695.53;1629138;87;21099;-75
2022/10/14 08:15:39;;;;;;;11.68;5.47;;;;;;;11.35;72.62;100695.11;1630123;86;21169;-73
2022/10/14 08:18:08;;;;;;;7.67;4.92;;;;;;;11.49;71.73;100692.20;1627225;86;20961;-77
2022/10/14 08:20:34;;;;;;;14.35;6.05;;;;;;;11.62;71.39;100687.94;1580821;88;21032;-72
2022/10/14 08:23:01;;;;;;;6.42;5.33;;;;;;;11.74;70.85;100689.65;1616957;87;21117;-72
2022/10/14 08:25:29;;;;;;;6.17;5.28;;;;;;;11.85;69.95;100691.21;1654052;86;21008;-72
2022/10/14 08:27:57;;;;;;;7.45;4.97;;;;;;;11.93;69.68;100690.89;1658330;86;21123;-75
2022/10/14 08:30:24;;;;;;;10.18;5.92;;;;;;;11.99;68.96;100691.30;1637540;86;20979;-73
2022/10/14 08:32:50;;;;;;;10.13;4.35;;;;;;;12.04;68.59;100688.17;1633007;87;21051;-72
2022/10/14 08:35:17;;;;;;;9.05;5.58;;;;;;;12.12;67.33;100689.19;1635036;86;21092;-75
2022/10/14 08:37:44;;;;;;;10.63;4.62;;;;;;;12.14;66.75;100687.05;1641541;86;21146;-74
2022/10/14 08:40:14;;;;;;;8.20;4.42;;;;;;;12.13;66.32;100692.16;1634655;86;21232;-72
2022/10/14 08:43:12;;;;;;;8.68;5.05;;;;;;;12.13;65.76;100689.45;1631218;86;21578;-74
2022/10/14 08:45:47;;;;;;;7.00;4.47;;;;;;;12.11;65.97;100679.45;1625389;86;21103;-73
2022/10/14 08:48:20;;;;;;;5.70;4.08;;;;;;;12.11;65.75;100681.33;1605347;89;21076;-75
2022/10/14 08:50:52;;;;;;;5.08;3.58;;;;;;;12.12;64.78;100686.49;1629057;86;21092;-76
2022/10/14 08:53:27;;;;;;;6.53;4.80;;;;;;;12.08;63.72;100684.50;1608384;88;21143;-75
2022/10/14 08:55:56;;;;;;;10.10;5.00;;;;;;;12.01;63.94;100688.66;1633149;86;20993;-73
2022/10/14 08:58:43;;;;;;;7.40;4.50;;;;;;;12.01;63.84;100684.61;1654746;86;21550;-75
2022/10/14 09:01:28;;;;;;;7.05;3.55;;;;;;;12.06;63.77;100685.25;1648871;86;21008;-72
2022/10/14 09:04:00;;;;;;;5.65;4.03;;;;;;;12.15;62.97;100676.57;1576207;89;21317;-71
2022/10/14 09:06:35;;;;;;;4.35;3.52;;;;;;;12.21;62.20;100681.02;1635953;86;21583;-72
2022/10/14 09:09:25;;;;;;;4.72;3.37;;;;;;;12.25;60.89;100688.11;1619888;87;21046;-74
2022/10/14 09:11:57;;;;;;;7.60;3.72;;;;;;;12.30;61.33;100684.70;1615473;87;21125;-71
2022/10/14 09:14:30;;;;;;;6.42;3.77;;;;;;;12.40;60.50;100679.53;1613211;87;21082;-71
2022/10/14 09:17:08;;;;;;;6.67;3.42;;;;;;;12.45;60.48;100680.98;1633466;87;21612;-72
2022/10/14 09:19:52;;;;;;;4.33;3.60;;;;;;;12.58;60.13;100679.36;1612952;87;21669;-71
2022/10/14 09:22:19;;;;;;;4.90;3.15;;;;;;;12.67;58.75;100681.45;1590556;88;21237;-73
2022/10/14 09:24:47;;;;;;;6.67;2.77;;;;;;;12.75;57.89;100678.92;1632977;86;21578;-74
2022/10/14 09:27:22;;;;;;;7.85;2.98;;;;;;;12.85;57.69;100685.05;1594955;87;21109;-72
2022/10/14 09:29:53;;;;;;;3.62;2.33;;;;;;;12.92;55.39;100674.91;1626610;87;21042;-74
2022/10/14 09:32:36;;;;;;;4.87;3.05;;;;;;;12.91;54.08;100680.02;1618646;87;21217;-75
2022/10/14 09:35:20;;;;;;;6.03;2.77;;;;;;;12.93;55.25;100671.16;1617665;87;21028;-73
2022/10/14 09:37:46;;;;;;;6.55;5.00;;;;;;;13.03;54.40;100671.35;1614675;87;21612;-75
2022/10/14 09:40:28;;;;;;;6.40;2.70;;;;;;;13.14;53.13;100668.34;1639140;85;21562;-74
2022/10/14 09:43:11;;;;;;;2.80;2.30;;;;;;;13.17;51.51;100665.97;1608069;88;21285;-73
2022/10/14 09:46:10;;;;;;;4.17;2.93;;;;;;;13.17;51.46;100660.57;1648765;85;21240;-73
2022/10/14 09:48:47;;;;;;;5.62;3.10;;;;;;;13.23;51.56;100658.25;1655818;85;21079;-73
2022/10/14 09:51:32;;;;;;;3.95;2.52;;;;;;;13.34;51.12;100660.05;1674879;85;21599;-76
2022/10/14 09:54:02;;;;;;;3.20;2.33;;;;;;;13.40;50.96;100652.84;1653416;85;22204;-74
2022/10/14 09:56:35;;;;;;;3.40;3.10;;;;;;;13.45;51.37;100651.59;1664330;85;21050;-77
2022/10/14 09:59:03;;;;;;;5.65;2.55;;;;;;;13.54;50.83;100650.11;1648111;85;21157;-76
2022/10/14 10:01:41;;;;;;;3.00;2.27;;;;;;;13.61;50.14;100655.36;1647523;85;21606;-76
2022/10/14 10:04:37;;;;;;;10.45;3.08;;;;;;;13.62;49.27;100646.98;1647903;87;21038;-74
2022/10/14 10:07:10;;;;;;;6.00;3.33;;;;;;;13.63;49.61;100651.86;1630368;87;21046;-77
2022/10/14 10:09:37;;;;;;;3.92;2.33;;;;;;;13.65;50.02;100651.92;1643283;87;21103;-76
2022/10/14 10:12:31;;;;;;;4.12;2.62;;;;;;;13.69;49.37;100654.94;1627614;86;21214;-77
2022/10/14 10:15:03;;;;;;;4.08;2.52;;;;;;;13.65;49.21;100649.75;1666665;85;21175;-81
2022/10/14 10:17:38;;;;;;;4.53;2.55;;;;;;;13.56;49.22;100649.34;1630242;87;21088;-78
2022/10/14 10:20:33;;;;;;;4.72;3.10;;;;;;;13.53;49.35;100656.58;1624652;87;21096;-77
2022/10/14 10:23:16;;;;;;;3.12;2.40;;;;;;;13.56;49.21;100645.29;1612874;87;21596;-76
2022/10/14 10:25:47;;;;;;;2.92;2.12;;;;;;;13.59;48.41;100648.02;1612481;86;21250;-81
2022/10/14 10:28:20;;;;;;;4.75;2.45;;;;;;;13.59;48.35;100647.49;1632107;87;21025;-82
2022/10/14 10:31:21;;;;;;;5.25;2.75;;;;;;;13.62;48.40;100646.98;1632923;86;21128;-80
2022/10/14 10:34:14;;;;;;;3.87;2.40;;;;;;;13.70;48.38;100645.24;1617160;86;21067;-77
2022/10/14 10:36:46;;;;;;;4.78;2.17;;;;;;;13.86;48.90;100647.66;1631631;87;21040;-84
2022/10/14 10:39:34;;;;;;;5.22;3.22;;;;;;;13.97;48.48;100645.36;1657211;85;21424;-80
2022/10/14 10:42:21;;;;;;;3.50;2.17;;;;;;;13.98;48.33;100647.01;1623119;86;21101;-84
2022/10/14 10:45:00;;;;;;;5.47;2.92;;;;;;;14.03;48.31;100646.26;1631742;86;21680;-81
2022/10/14 10:47:44;;;;;;;8.90;2.95;;;;;;;14.07;48.14;100647.39;1594519;88;21677;-82
2022/10/14 10:50:36;;;;;;;8.30;3.42;;;;;;;14.10;47.21;100642.86;1618023;88;21060;-79
2022/10/14 10:53:36;;;;;;;5.37;2.77;;;;;;;14.09;47.78;100643.92;1625509;87;23005;-78
2022/10/14 10:56:25;;;;;;;3.00;2.67;;;;;;;14.21;47.49;100645.43;1659458;86;21064;-77
2022/10/14 10:59:09;;;;;;;6.40;2.75;;;;;;;14.36;46.74;100638.08;1622589;86;21000;-78
2022/10/14 11:01:51;;;;;;;4.10;2.27;;;;;;;14.39;46.70;100638.39;1657284;86;21044;-73
2022/10/14 11:04:30;;;;;;;3.42;2.52;;;;;;;14.40;46.40;100637.33;1657707;86;21119;-74
2022/10/14 11:13:38;;;;;;;2.77;2.22;;;;;;;14.62;45.11;100618.38;1633259;86;21167;-80
2022/10/14 11:16:34;;;;;;;3.72;3.02;;;;;;;14.64;45.29;100625.70;1633671;86;21674;-85
2022/10/14 11:19:12;;;;;;;3.27;2.50;;;;;;;14.71;45.47;100624.98;1632053;86;21187;-78
2022/10/14 11:21:50;;;;;;;5.37;2.27;;;;;;;14.88;45.13;100622.70;1635384;86;22046;-75
2022/10/14 11:24:47;;;;;;;7.55;2.67;;;;;;;14.96;44.82;100616.84;1633102;86;21314;-78
2022/10/14 11:27:37;;;;;;;5.72;2.62;;;;;;;15.00;44.78;100615.25;1612872;88;21491;-76
2022/10/14 11:30:17;;;;;;;6.00;2.22;;;;;;;15.14;44.38;100611.05;1592425;90;21555;-77
2022/10/14 11:33:02;;;;;;;3.12;1.95;;;;;;;15.18;43.93;100613.52;1633325;87;21552;-78
2022/10/14 11:35:47;;;;;;;4.10;2.00;;;;;;;15.18;43.50;100608.09;1598562;87;21192;-79
2022/10/14 11:38:32;;;;;;;6.00;2.92;;;;;;;15.15;43.24;100611.33;1646441;87;21129;-78
2022/10/14 11:41:26;;;;;;;7.05;2.50;;;;;;;15.16;43.96;100603.45;1621664;86;21108;-78
2022/10/14 11:44:16;;;;;;;4.33;2.02;;;;;;;15.31;43.28;100601.41;1639715;86;21707;-77
2022/10/14 11:46:46;;;;;;;3.85;2.08;;;;;;;15.39;43.08;100603.67;1627124;88;21081;-77
2022/10/14 11:49:23;;;;;;;4.87;2.98;;;;;;;15.44;42.93;100599.65;1631869;86;21217;-80
2022/10/14 11:51:56;;;;;;;3.98;2.65;;;;;;;15.43;42.91;100600.19;1629978;86;21360;-80